RYR48TY LEGE-EDDN
Flight info
| Callsign | RYR48TY |
|---|---|
| Flight time | 1h 35m |
| Altitude | 34000 |
| Route | BGR L110 DIBER DCT ODIXU DCT MAXIR DCT LUSOL DCT BODRU DCT OKTET DCT IRMAR DCT KINES DCT VANAS DCT MOBLO DCT UBIMA DCT SOSAL DCT KORED DCT BERSU DCT DITON/N0429F330 DCT LOKTA DCT TEDGO N869 LETKU LETKU1V |
| Aircraft | B738/M-SDE2E3FGHIRWXY/LB1 |
Departure
| Time | 2026-05-04 20:17 |
|---|---|
| Airport | Girona-Costa Brava Airport (LEGE) |
Arrival
| Time | 2026-05-04 21:53 |
|---|---|
| Airport | Nuremberg Airport (EDDN) |
| Time | Latitude | Longitude | Altitude | Speed | Heading |
|---|---|---|---|---|---|
| 2026-05-04 19:41 | 41.90001 | 2.76522 | 417 ft | 0 kts | 106° |
| 2026-05-04 20:07 | 41.90005 | 2.76503 | 396 ft | 4 kts | 106° |
| 2026-05-04 20:07 | 41.90013 | 2.76468 | 416 ft | 4 kts | 106° |
| 2026-05-04 20:07 | 41.90021 | 2.76434 | 418 ft | 4 kts | 106° |
| 2026-05-04 20:08 | 41.90027 | 2.76407 | 416 ft | 4 kts | 106° |
| 2026-05-04 20:08 | 41.90034 | 2.76372 | 413 ft | 4 kts | 106° |
| 2026-05-04 20:08 | 41.90041 | 2.76341 | 415 ft | 1 kts | 106° |
| 2026-05-04 20:13 | 41.90041 | 2.76342 | 415 ft | 1 kts | 106° |
| 2026-05-04 20:13 | 41.90028 | 2.76397 | 425 ft | 13 kts | 106° |
| 2026-05-04 20:13 | 41.90073 | 2.76468 | 422 ft | 11 kts | 17° |
| 2026-05-04 20:13 | 41.90146 | 2.76487 | 431 ft | 11 kts | 340° |
| 2026-05-04 20:14 | 41.90178 | 2.76388 | 419 ft | 15 kts | 286° |
| 2026-05-04 20:14 | 41.90241 | 2.76341 | 430 ft | 12 kts | 15° |
| 2026-05-04 20:14 | 41.90323 | 2.76374 | 436 ft | 12 kts | 16° |
| 2026-05-04 20:14 | 41.90421 | 2.76411 | 438 ft | 17 kts | 14° |
| 2026-05-04 20:15 | 41.90550 | 2.76459 | 451 ft | 21 kts | 16° |
| 2026-05-04 20:15 | 41.90699 | 2.76520 | 458 ft | 23 kts | 18° |
| 2026-05-04 20:15 | 41.90851 | 2.76574 | 464 ft | 22 kts | 16° |
| 2026-05-04 20:15 | 41.90997 | 2.76631 | 474 ft | 22 kts | 14° |
| 2026-05-04 20:16 | 41.91139 | 2.76683 | 472 ft | 21 kts | 17° |
| 2026-05-04 20:16 | 41.91277 | 2.76736 | 474 ft | 20 kts | 15° |
| 2026-05-04 20:16 | 41.91427 | 2.76789 | 470 ft | 29 kts | 8° |
| 2026-05-04 20:16 | 41.91535 | 2.76723 | 467 ft | 12 kts | 296° |
| 2026-05-04 20:17 | 41.91473 | 2.76572 | 471 ft | 40 kts | 195° |
| 2026-05-04 20:17 | 41.90925 | 2.76369 | 468 ft | 122 kts | 195° |
| 2026-05-04 20:17 | 41.89897 | 2.75979 | 673 ft | 175 kts | 195° |
| 2026-05-04 20:17 | 41.88699 | 2.75535 | 1740 ft | 173 kts | 197° |
| 2026-05-04 20:18 | 41.87564 | 2.75153 | 2905 ft | 169 kts | 198° |
| 2026-05-04 20:18 | 41.86335 | 2.74722 | 3318 ft | 197 kts | 198° |
| 2026-05-04 20:18 | 41.84988 | 2.74252 | 3816 ft | 207 kts | 198° |
| 2026-05-04 20:18 | 41.83543 | 2.73754 | 4466 ft | 213 kts | 197° |
| 2026-05-04 20:19 | 41.82041 | 2.73714 | 5185 ft | 225 kts | 167° |
| 2026-05-04 20:19 | 41.80683 | 2.74794 | 6051 ft | 234 kts | 137° |
| 2026-05-04 20:19 | 41.79901 | 2.76704 | 6827 ft | 245 kts | 105° |
| 2026-05-04 20:19 | 41.79714 | 2.79003 | 7527 ft | 252 kts | 97° |
| 2026-05-04 20:20 | 41.79816 | 2.81341 | 8077 ft | 259 kts | 73° |
| 2026-05-04 20:20 | 41.80595 | 2.83660 | 8351 ft | 287 kts | 63° |
| 2026-05-04 20:20 | 41.81558 | 2.86122 | 8813 ft | 304 kts | 63° |
| 2026-05-04 20:20 | 41.82561 | 2.88662 | 9590 ft | 311 kts | 63° |
| 2026-05-04 20:21 | 41.83575 | 2.91253 | 10302 ft | 319 kts | 63° |
| 2026-05-04 20:21 | 41.84635 | 2.93996 | 10536 ft | 345 kts | 64° |
| 2026-05-04 20:21 | 41.86905 | 2.99946 | 11747 ft | 364 kts | 64° |
| 2026-05-04 20:22 | 41.88059 | 3.02991 | 12565 ft | 368 kts | 64° |
| 2026-05-04 20:22 | 41.89222 | 3.06071 | 13324 ft | 373 kts | 65° |
| 2026-05-04 20:22 | 41.90405 | 3.09208 | 14011 ft | 379 kts | 65° |
| 2026-05-04 20:22 | 41.91596 | 3.12370 | 14758 ft | 380 kts | 65° |
| 2026-05-04 20:23 | 41.92793 | 3.15552 | 15455 ft | 384 kts | 65° |
| 2026-05-04 20:23 | 41.94007 | 3.18783 | 16106 ft | 390 kts | 65° |
| 2026-05-04 20:23 | 41.95034 | 3.22139 | 16844 ft | 388 kts | 80° |
| 2026-05-04 20:23 | 41.95484 | 3.25655 | 17595 ft | 387 kts | 85° |
| 2026-05-04 20:24 | 41.95866 | 3.29258 | 18256 ft | 392 kts | 85° |
| 2026-05-04 20:24 | 41.96245 | 3.32921 | 18805 ft | 397 kts | 85° |
| 2026-05-04 20:24 | 41.96631 | 3.36609 | 19373 ft | 401 kts | 85° |
| 2026-05-04 20:24 | 41.97032 | 3.40338 | 19952 ft | 405 kts | 85° |
| 2026-05-04 20:25 | 41.97445 | 3.44107 | 20518 ft | 409 kts | 85° |
| 2026-05-04 20:25 | 41.97867 | 3.47902 | 21066 ft | 413 kts | 85° |
| 2026-05-04 20:25 | 41.98296 | 3.51742 | 21611 ft | 417 kts | 85° |
| 2026-05-04 20:25 | 41.98728 | 3.55610 | 22154 ft | 421 kts | 85° |
| 2026-05-04 20:26 | 41.99165 | 3.59524 | 22691 ft | 425 kts | 85° |
| 2026-05-04 20:26 | 41.99604 | 3.63465 | 23214 ft | 429 kts | 85° |
| 2026-05-04 20:26 | 42.00046 | 3.67443 | 23686 ft | 432 kts | 85° |
| 2026-05-04 20:26 | 42.00484 | 3.71403 | 24123 ft | 435 kts | 85° |
| 2026-05-04 20:27 | 42.00929 | 3.75440 | 24579 ft | 438 kts | 85° |
| 2026-05-04 20:27 | 42.01376 | 3.79505 | 25010 ft | 441 kts | 85° |
| 2026-05-04 20:27 | 42.01824 | 3.83598 | 25405 ft | 444 kts | 85° |
| 2026-05-04 20:27 | 42.02274 | 3.87722 | 25811 ft | 447 kts | 85° |
| 2026-05-04 20:28 | 42.02725 | 3.91873 | 26231 ft | 450 kts | 85° |
| 2026-05-04 20:28 | 42.03177 | 3.96048 | 26659 ft | 452 kts | 85° |
| 2026-05-04 20:28 | 42.03630 | 4.00242 | 27077 ft | 455 kts | 85° |
| 2026-05-04 20:28 | 42.04085 | 4.04469 | 27471 ft | 457 kts | 85° |
| 2026-05-04 20:29 | 42.04540 | 4.08721 | 27851 ft | 460 kts | 85° |
| 2026-05-04 20:29 | 42.04996 | 4.12991 | 28237 ft | 463 kts | 85° |
| 2026-05-04 20:29 | 42.05453 | 4.17285 | 28614 ft | 465 kts | 85° |
| 2026-05-04 20:29 | 42.05913 | 4.21616 | 28964 ft | 467 kts | 85° |
| 2026-05-04 20:30 | 42.06371 | 4.25949 | 29378 ft | 469 kts | 85° |
| 2026-05-04 20:30 | 42.06830 | 4.30299 | 29742 ft | 471 kts | 85° |
| 2026-05-04 20:30 | 42.07292 | 4.34673 | 30069 ft | 474 kts | 84° |
| 2026-05-04 20:30 | 42.08144 | 4.38983 | 30371 ft | 480 kts | 69° |
| 2026-05-04 20:31 | 42.09754 | 4.42926 | 30750 ft | 483 kts | 55° |
| 2026-05-04 20:31 | 42.11981 | 4.46291 | 31170 ft | 483 kts | 41° |
| 2026-05-04 20:31 | 42.14552 | 4.49177 | 31618 ft | 480 kts | 39° |
| 2026-05-04 20:31 | 42.17156 | 4.52016 | 31947 ft | 481 kts | 39° |
| 2026-05-04 20:32 | 42.19731 | 4.54817 | 32218 ft | 483 kts | 39° |
| 2026-05-04 20:32 | 42.22376 | 4.57720 | 32534 ft | 483 kts | 39° |
| 2026-05-04 20:32 | 42.24937 | 4.60562 | 32890 ft | 483 kts | 39° |
| 2026-05-04 20:32 | 42.27521 | 4.63457 | 33271 ft | 482 kts | 39° |
| 2026-05-04 20:33 | 42.30095 | 4.66358 | 33622 ft | 482 kts | 39° |
| 2026-05-04 20:33 | 42.32662 | 4.69264 | 33952 ft | 481 kts | 39° |
| 2026-05-04 20:33 | 42.37827 | 4.75124 | 33945 ft | 486 kts | 39° |
| 2026-05-04 20:34 | 42.42977 | 4.80978 | 33932 ft | 480 kts | 39° |
| 2026-05-04 20:34 | 42.48078 | 4.86785 | 33956 ft | 480 kts | 39° |
| 2026-05-04 20:35 | 42.53189 | 4.92616 | 33960 ft | 481 kts | 40° |
| 2026-05-04 20:35 | 42.58305 | 4.98465 | 33943 ft | 481 kts | 40° |
| 2026-05-04 20:36 | 42.63422 | 5.04328 | 33962 ft | 481 kts | 40° |
| 2026-05-04 20:36 | 42.68532 | 5.10197 | 33966 ft | 482 kts | 40° |
| 2026-05-04 20:37 | 42.73653 | 5.16091 | 33968 ft | 482 kts | 40° |
| 2026-05-04 20:37 | 42.78743 | 5.21963 | 33961 ft | 482 kts | 40° |
| 2026-05-04 20:38 | 42.83858 | 5.27877 | 33970 ft | 482 kts | 40° |
| 2026-05-04 20:38 | 42.88964 | 5.33794 | 33944 ft | 482 kts | 40° |
| 2026-05-04 20:39 | 42.94068 | 5.39722 | 33982 ft | 482 kts | 40° |
| 2026-05-04 20:39 | 42.99167 | 5.45657 | 33969 ft | 482 kts | 40° |
| 2026-05-04 20:40 | 43.04259 | 5.51599 | 33978 ft | 481 kts | 40° |
| 2026-05-04 20:40 | 43.09352 | 5.57561 | 33995 ft | 481 kts | 41° |
| 2026-05-04 20:41 | 43.13997 | 5.64149 | 33990 ft | 481 kts | 50° |
| 2026-05-04 20:41 | 43.18365 | 5.71083 | 33969 ft | 481 kts | 50° |
| 2026-05-04 20:42 | 43.22764 | 5.77990 | 33993 ft | 481 kts | 49° |
| 2026-05-04 20:42 | 43.27178 | 5.84821 | 34004 ft | 482 kts | 49° |
| 2026-05-04 20:43 | 43.31637 | 5.91717 | 34004 ft | 483 kts | 49° |
| 2026-05-04 20:43 | 43.36085 | 5.98617 | 34008 ft | 483 kts | 47° |
| 2026-05-04 20:44 | 43.38602 | 6.01670 | 33994 ft | 482 kts | 31° |
| 2026-05-04 20:44 | 43.41576 | 6.03744 | 34021 ft | 478 kts | 17° |
| 2026-05-04 20:44 | 43.44776 | 6.04837 | 34000 ft | 471 kts | 1° |
| 2026-05-04 20:44 | 43.48025 | 6.05131 | 34043 ft | 468 kts | 359° |
| 2026-05-04 20:45 | 43.54543 | 6.05616 | 34018 ft | 469 kts | 359° |
| 2026-05-04 20:45 | 43.61064 | 6.06206 | 34003 ft | 470 kts | 360° |
| 2026-05-04 20:46 | 43.67592 | 6.06856 | 34027 ft | 470 kts | 0° |
| 2026-05-04 20:46 | 43.74073 | 6.07521 | 34009 ft | 471 kts | 3° |
| 2026-05-04 20:47 | 43.80438 | 6.09864 | 34001 ft | 479 kts | 22° |
| 2026-05-04 20:47 | 43.86411 | 6.13962 | 34012 ft | 480 kts | 25° |
| 2026-05-04 20:48 | 43.92365 | 6.18160 | 34014 ft | 480 kts | 25° |
| 2026-05-04 20:48 | 43.98347 | 6.22296 | 34004 ft | 480 kts | 24° |
| 2026-05-04 20:49 | 44.04340 | 6.26401 | 34007 ft | 480 kts | 24° |
| 2026-05-04 20:49 | 44.10336 | 6.30516 | 34015 ft | 480 kts | 24° |
| 2026-05-04 20:50 | 44.16325 | 6.34641 | 34013 ft | 479 kts | 24° |
| 2026-05-04 20:50 | 44.22265 | 6.38740 | 34002 ft | 479 kts | 25° |
| 2026-05-04 20:51 | 44.28231 | 6.42874 | 34032 ft | 479 kts | 25° |
| 2026-05-04 20:51 | 44.34189 | 6.47015 | 33994 ft | 479 kts | 24° |
| 2026-05-04 20:52 | 44.40138 | 6.51157 | 34031 ft | 476 kts | 24° |
| 2026-05-04 20:52 | 44.46074 | 6.55302 | 34063 ft | 478 kts | 24° |
| 2026-05-04 20:53 | 44.52033 | 6.59459 | 34067 ft | 478 kts | 24° |
| 2026-05-04 20:53 | 44.57977 | 6.63592 | 34080 ft | 477 kts | 24° |
| 2026-05-04 20:54 | 44.63937 | 6.67744 | 34111 ft | 482 kts | 24° |
| 2026-05-04 20:54 | 44.66962 | 6.69856 | 34224 ft | 487 kts | 24° |
| 2026-05-04 20:54 | 44.70009 | 6.71988 | 34377 ft | 491 kts | 24° |
| 2026-05-04 20:55 | 44.73072 | 6.74135 | 34615 ft | 492 kts | 24° |
| 2026-05-04 20:55 | 44.76097 | 6.76210 | 34941 ft | 489 kts | 20° |
| 2026-05-04 20:55 | 44.79293 | 6.77745 | 35319 ft | 482 kts | 10° |
| 2026-05-04 20:55 | 44.82565 | 6.78599 | 35743 ft | 474 kts | 2° |
| 2026-05-04 20:56 | 44.85839 | 6.78814 | 36036 ft | 467 kts | 353° |
| 2026-05-04 20:56 | 44.89088 | 6.78604 | 36285 ft | 467 kts | 352° |
| 2026-05-04 20:56 | 44.92326 | 6.78333 | 36528 ft | 466 kts | 352° |
| 2026-05-04 20:56 | 44.95567 | 6.78061 | 36743 ft | 466 kts | 352° |
| 2026-05-04 20:57 | 44.98800 | 6.77807 | 36969 ft | 464 kts | 352° |
| 2026-05-04 20:57 | 45.02018 | 6.77568 | 37209 ft | 464 kts | 353° |
| 2026-05-04 20:57 | 45.05248 | 6.77343 | 37462 ft | 464 kts | 353° |
| 2026-05-04 20:57 | 45.08469 | 6.77128 | 37699 ft | 463 kts | 353° |
| 2026-05-04 20:58 | 45.11685 | 6.76919 | 37924 ft | 463 kts | 353° |
| 2026-05-04 20:58 | 45.13813 | 6.76780 | 38070 ft | 462 kts | 353° |
| 2026-05-04 20:58 | 45.20271 | 6.76353 | 38095 ft | 466 kts | 353° |
| 2026-05-04 20:59 | 45.26754 | 6.76069 | 38064 ft | 467 kts | 1° |
| 2026-05-04 20:59 | 45.33111 | 6.77988 | 38113 ft | 468 kts | 14° |
| 2026-05-04 21:00 | 45.39358 | 6.80635 | 38061 ft | 467 kts | 14° |
| 2026-05-04 21:00 | 45.45604 | 6.83245 | 38062 ft | 468 kts | 13° |
| 2026-05-04 21:01 | 45.51867 | 6.85811 | 38076 ft | 469 kts | 13° |
| 2026-05-04 21:01 | 45.58164 | 6.88369 | 38061 ft | 470 kts | 13° |
| 2026-05-04 21:02 | 45.64459 | 6.90935 | 38066 ft | 472 kts | 13° |
| 2026-05-04 21:02 | 45.70797 | 6.93528 | 38075 ft | 475 kts | 13° |
| 2026-05-04 21:03 | 45.77166 | 6.96147 | 38085 ft | 477 kts | 13° |
| 2026-05-04 21:03 | 45.83558 | 6.98789 | 38061 ft | 479 kts | 13° |
| 2026-05-04 21:04 | 45.89931 | 7.01408 | 38053 ft | 480 kts | 13° |
| 2026-05-04 21:04 | 45.96362 | 7.04059 | 38059 ft | 480 kts | 13° |
| 2026-05-04 21:05 | 46.02784 | 7.06718 | 38041 ft | 479 kts | 13° |
| 2026-05-04 21:05 | 46.09156 | 7.09352 | 38060 ft | 474 kts | 13° |
| 2026-05-04 21:06 | 46.15489 | 7.11996 | 38055 ft | 473 kts | 14° |
| 2026-05-04 21:06 | 46.21791 | 7.14637 | 38037 ft | 470 kts | 14° |
| 2026-05-04 21:07 | 46.28068 | 7.17212 | 38042 ft | 468 kts | 13° |
| 2026-05-04 21:07 | 46.34313 | 7.19847 | 38046 ft | 466 kts | 14° |
| 2026-05-04 21:08 | 46.40539 | 7.22485 | 38030 ft | 466 kts | 14° |
| 2026-05-04 21:08 | 46.46721 | 7.25095 | 38011 ft | 465 kts | 14° |
| 2026-05-04 21:09 | 46.52945 | 7.27722 | 37992 ft | 465 kts | 14° |
| 2026-05-04 21:09 | 46.59158 | 7.30351 | 37995 ft | 466 kts | 14° |
| 2026-05-04 21:10 | 46.65386 | 7.32993 | 37996 ft | 467 kts | 14° |
| 2026-05-04 21:10 | 46.71633 | 7.35650 | 38005 ft | 468 kts | 14° |
| 2026-05-04 21:11 | 46.77887 | 7.38315 | 37992 ft | 469 kts | 14° |
| 2026-05-04 21:11 | 46.83975 | 7.41716 | 37991 ft | 472 kts | 31° |
| 2026-05-04 21:12 | 46.88905 | 7.48001 | 37991 ft | 473 kts | 51° |
| 2026-05-04 21:12 | 46.92918 | 7.55533 | 37997 ft | 473 kts | 52° |
| 2026-05-04 21:13 | 46.96945 | 7.63151 | 37990 ft | 474 kts | 52° |
| 2026-05-04 21:13 | 47.01024 | 7.70733 | 37996 ft | 474 kts | 51° |
| 2026-05-04 21:14 | 47.05114 | 7.78305 | 37996 ft | 474 kts | 51° |
| 2026-05-04 21:14 | 47.09185 | 7.85866 | 38001 ft | 474 kts | 52° |
| 2026-05-04 21:15 | 47.13267 | 7.93476 | 38011 ft | 474 kts | 52° |
| 2026-05-04 21:15 | 47.16919 | 8.01510 | 38014 ft | 474 kts | 59° |
| 2026-05-04 21:16 | 47.20318 | 8.09800 | 38010 ft | 474 kts | 59° |
| 2026-05-04 21:16 | 47.23775 | 8.18074 | 38002 ft | 475 kts | 59° |
| 2026-05-04 21:17 | 47.27265 | 8.26324 | 38015 ft | 474 kts | 59° |
| 2026-05-04 21:17 | 47.31238 | 8.33862 | 38023 ft | 473 kts | 43° |
| 2026-05-04 21:18 | 47.36500 | 8.39639 | 38012 ft | 471 kts | 32° |
| 2026-05-04 21:18 | 47.42027 | 8.44845 | 38031 ft | 471 kts | 31° |
| 2026-05-04 21:19 | 47.47535 | 8.50081 | 38021 ft | 471 kts | 32° |
| 2026-05-04 21:19 | 47.53007 | 8.55372 | 38031 ft | 470 kts | 32° |
| 2026-05-04 21:20 | 47.58474 | 8.60701 | 38016 ft | 470 kts | 32° |
| 2026-05-04 21:20 | 47.63890 | 8.65997 | 38010 ft | 469 kts | 32° |
| 2026-05-04 21:21 | 47.69334 | 8.71330 | 38015 ft | 469 kts | 33° |
| 2026-05-04 21:21 | 47.74771 | 8.76668 | 37993 ft | 468 kts | 33° |
| 2026-05-04 21:22 | 47.80201 | 8.82013 | 38001 ft | 468 kts | 33° |
| 2026-05-04 21:22 | 47.85607 | 8.87347 | 38002 ft | 467 kts | 33° |
| 2026-05-04 21:23 | 47.91023 | 8.92705 | 37985 ft | 467 kts | 33° |
| 2026-05-04 21:23 | 47.96441 | 8.98079 | 37993 ft | 467 kts | 33° |
| 2026-05-04 21:24 | 48.01846 | 9.03454 | 37989 ft | 467 kts | 33° |
| 2026-05-04 21:24 | 48.07249 | 9.08842 | 37983 ft | 467 kts | 33° |
| 2026-05-04 21:25 | 48.12659 | 9.14247 | 37990 ft | 467 kts | 32° |
| 2026-05-04 21:25 | 48.18511 | 9.18334 | 37996 ft | 464 kts | 14° |
| 2026-05-04 21:26 | 48.21659 | 9.19356 | 37750 ft | 466 kts | 5° |
| 2026-05-04 21:26 | 48.24885 | 9.19913 | 37266 ft | 466 kts | 4° |
| 2026-05-04 21:26 | 48.28048 | 9.20371 | 36731 ft | 464 kts | 3° |
| 2026-05-04 21:26 | 48.31257 | 9.20828 | 36237 ft | 462 kts | 3° |
| 2026-05-04 21:27 | 48.34441 | 9.21306 | 35859 ft | 458 kts | 4° |
| 2026-05-04 21:27 | 48.37597 | 9.21809 | 35442 ft | 455 kts | 4° |
| 2026-05-04 21:27 | 48.40738 | 9.22330 | 35043 ft | 452 kts | 4° |
| 2026-05-04 21:27 | 48.43847 | 9.22855 | 34644 ft | 449 kts | 4° |
| 2026-05-04 21:28 | 48.46937 | 9.23379 | 34240 ft | 446 kts | 4° |
| 2026-05-04 21:28 | 48.50022 | 9.23903 | 33828 ft | 444 kts | 4° |
| 2026-05-04 21:28 | 48.53079 | 9.24421 | 33369 ft | 442 kts | 4° |
| 2026-05-04 21:28 | 48.56135 | 9.24938 | 32946 ft | 439 kts | 4° |
| 2026-05-04 21:29 | 48.59134 | 9.25649 | 32533 ft | 438 kts | 15° |
| 2026-05-04 21:29 | 48.61923 | 9.27465 | 32176 ft | 436 kts | 32° |
| 2026-05-04 21:29 | 48.64298 | 9.30228 | 31770 ft | 431 kts | 47° |
| 2026-05-04 21:29 | 48.66229 | 9.33675 | 31408 ft | 427 kts | 53° |
| 2026-05-04 21:30 | 48.68075 | 9.37217 | 31033 ft | 431 kts | 53° |
| 2026-05-04 21:30 | 48.69957 | 9.40777 | 30675 ft | 433 kts | 53° |
| 2026-05-04 21:30 | 48.71861 | 9.44296 | 30286 ft | 431 kts | 52° |
| 2026-05-04 21:30 | 48.73769 | 9.47792 | 29881 ft | 429 kts | 52° |
| 2026-05-04 21:31 | 48.77521 | 9.54725 | 29049 ft | 422 kts | 53° |
| 2026-05-04 21:31 | 48.79372 | 9.58160 | 28646 ft | 418 kts | 53° |
| 2026-05-04 21:31 | 48.81207 | 9.61573 | 28275 ft | 415 kts | 53° |
| 2026-05-04 21:32 | 48.83021 | 9.64949 | 27891 ft | 412 kts | 52° |
| 2026-05-04 21:32 | 48.84823 | 9.68306 | 27507 ft | 408 kts | 53° |
| 2026-05-04 21:32 | 48.86608 | 9.71635 | 27140 ft | 405 kts | 53° |
| 2026-05-04 21:32 | 48.88382 | 9.74945 | 26769 ft | 403 kts | 52° |
| 2026-05-04 21:33 | 48.90143 | 9.78236 | 26402 ft | 400 kts | 52° |
| 2026-05-04 21:33 | 48.91894 | 9.81513 | 26036 ft | 398 kts | 52° |
| 2026-05-04 21:33 | 48.93633 | 9.84770 | 25669 ft | 395 kts | 52° |
| 2026-05-04 21:33 | 48.95341 | 9.87973 | 25313 ft | 393 kts | 52° |
| 2026-05-04 21:34 | 48.97057 | 9.91196 | 24948 ft | 392 kts | 52° |
| 2026-05-04 21:34 | 48.98768 | 9.94412 | 24593 ft | 390 kts | 52° |
| 2026-05-04 21:34 | 49.00471 | 9.97618 | 24228 ft | 388 kts | 52° |
| 2026-05-04 21:34 | 49.02164 | 10.00810 | 23870 ft | 387 kts | 52° |
| 2026-05-04 21:35 | 49.03851 | 10.03992 | 23480 ft | 386 kts | 52° |
| 2026-05-04 21:35 | 49.05533 | 10.07170 | 23071 ft | 384 kts | 52° |
| 2026-05-04 21:35 | 49.07203 | 10.10330 | 22687 ft | 381 kts | 52° |
| 2026-05-04 21:35 | 49.08861 | 10.13469 | 22327 ft | 379 kts | 52° |
| 2026-05-04 21:36 | 49.10504 | 10.16584 | 21965 ft | 376 kts | 52° |
| 2026-05-04 21:36 | 49.12142 | 10.19691 | 21608 ft | 373 kts | 52° |
| 2026-05-04 21:36 | 49.13759 | 10.22764 | 21252 ft | 370 kts | 52° |
| 2026-05-04 21:36 | 49.15440 | 10.25720 | 20906 ft | 368 kts | 47° |
| 2026-05-04 21:37 | 49.17228 | 10.28496 | 20578 ft | 365 kts | 45° |
| 2026-05-04 21:37 | 49.19028 | 10.31219 | 20232 ft | 363 kts | 45° |
| 2026-05-04 21:37 | 49.20806 | 10.33942 | 19896 ft | 361 kts | 46° |
| 2026-05-04 21:37 | 49.22562 | 10.36668 | 19547 ft | 359 kts | 46° |
| 2026-05-04 21:38 | 49.24309 | 10.39388 | 19205 ft | 357 kts | 46° |
| 2026-05-04 21:38 | 49.26060 | 10.42067 | 18865 ft | 355 kts | 45° |
| 2026-05-04 21:38 | 49.27808 | 10.44723 | 18536 ft | 354 kts | 46° |
| 2026-05-04 21:38 | 49.29550 | 10.47373 | 18177 ft | 353 kts | 46° |
| 2026-05-04 21:39 | 49.31290 | 10.50024 | 17800 ft | 351 kts | 46° |
| 2026-05-04 21:39 | 49.33016 | 10.52663 | 17437 ft | 349 kts | 46° |
| 2026-05-04 21:39 | 49.34729 | 10.55285 | 17092 ft | 347 kts | 46° |
| 2026-05-04 21:39 | 49.36423 | 10.57903 | 16759 ft | 344 kts | 46° |
| 2026-05-04 21:40 | 49.38097 | 10.60508 | 16432 ft | 342 kts | 46° |
| 2026-05-04 21:40 | 49.39761 | 10.63100 | 16104 ft | 340 kts | 46° |
| 2026-05-04 21:40 | 49.41393 | 10.65645 | 15786 ft | 337 kts | 47° |
| 2026-05-04 21:40 | 49.42719 | 10.68565 | 15437 ft | 332 kts | 71° |
| 2026-05-04 21:41 | 49.43195 | 10.71973 | 15146 ft | 324 kts | 92° |
| 2026-05-04 21:41 | 49.42993 | 10.75375 | 14847 ft | 318 kts | 101° |
| 2026-05-04 21:41 | 49.42652 | 10.78730 | 14509 ft | 317 kts | 102° |
| 2026-05-04 21:41 | 49.42295 | 10.82098 | 13941 ft | 324 kts | 102° |
| 2026-05-04 21:42 | 49.41947 | 10.85519 | 13499 ft | 326 kts | 101° |
| 2026-05-04 21:42 | 49.41610 | 10.88951 | 13113 ft | 324 kts | 101° |
| 2026-05-04 21:42 | 49.41278 | 10.92373 | 12762 ft | 322 kts | 101° |
| 2026-05-04 21:42 | 49.40949 | 10.95754 | 12433 ft | 319 kts | 101° |
| 2026-05-04 21:43 | 49.40624 | 10.99097 | 12173 ft | 314 kts | 102° |
| 2026-05-04 21:43 | 49.40301 | 11.02394 | 11916 ft | 310 kts | 102° |
| 2026-05-04 21:43 | 49.39983 | 11.05642 | 11651 ft | 306 kts | 102° |
| 2026-05-04 21:43 | 49.39666 | 11.08853 | 11401 ft | 302 kts | 102° |
| 2026-05-04 21:44 | 49.39459 | 11.10954 | 11236 ft | 300 kts | 102° |
| 2026-05-04 21:44 | 49.39147 | 11.14105 | 11019 ft | 296 kts | 102° |
| 2026-05-04 21:44 | 49.38837 | 11.17218 | 10732 ft | 294 kts | 102° |
| 2026-05-04 21:44 | 49.38528 | 11.20317 | 10394 ft | 295 kts | 102° |
| 2026-05-04 21:45 | 49.38214 | 11.23450 | 9852 ft | 298 kts | 102° |
| 2026-05-04 21:45 | 49.37898 | 11.26557 | 9314 ft | 298 kts | 102° |
| 2026-05-04 21:45 | 49.37571 | 11.29698 | 8720 ft | 298 kts | 102° |
| 2026-05-04 21:45 | 49.37236 | 11.32826 | 8141 ft | 297 kts | 102° |
| 2026-05-04 21:46 | 49.36893 | 11.35945 | 7591 ft | 295 kts | 102° |
| 2026-05-04 21:46 | 49.36548 | 11.39011 | 7179 ft | 289 kts | 102° |
| 2026-05-04 21:46 | 49.36334 | 11.42048 | 6738 ft | 285 kts | 85° |
| 2026-05-04 21:46 | 49.37036 | 11.44845 | 6328 ft | 285 kts | 52° |
| 2026-05-04 21:47 | 49.38597 | 11.46623 | 5899 ft | 281 kts | 20° |
| 2026-05-04 21:47 | 49.40492 | 11.47245 | 5508 ft | 276 kts | 9° |
| 2026-05-04 21:47 | 49.42391 | 11.47558 | 5062 ft | 273 kts | 356° |
| 2026-05-04 21:47 | 49.44223 | 11.46920 | 4640 ft | 269 kts | 335° |
| 2026-05-04 21:48 | 49.45556 | 11.45223 | 4228 ft | 268 kts | 303° |
| 2026-05-04 21:48 | 49.46232 | 11.42612 | 4031 ft | 256 kts | 286° |
| 2026-05-04 21:48 | 49.46676 | 11.40086 | 3977 ft | 240 kts | 284° |
| 2026-05-04 21:48 | 49.46992 | 11.37602 | 3986 ft | 229 kts | 280° |
| 2026-05-04 21:49 | 49.47229 | 11.35200 | 3997 ft | 224 kts | 279° |
| 2026-05-04 21:49 | 49.47443 | 11.32907 | 3989 ft | 208 kts | 279° |
| 2026-05-04 21:49 | 49.47642 | 11.30810 | 3815 ft | 194 kts | 279° |
| 2026-05-04 21:49 | 49.47832 | 11.28820 | 3579 ft | 183 kts | 280° |
| 2026-05-04 21:50 | 49.48017 | 11.26899 | 3336 ft | 180 kts | 280° |
| 2026-05-04 21:50 | 49.48201 | 11.24988 | 3099 ft | 182 kts | 281° |
| 2026-05-04 21:50 | 49.48380 | 11.23122 | 2894 ft | 168 kts | 280° |
| 2026-05-04 21:50 | 49.48547 | 11.21394 | 2641 ft | 159 kts | 281° |
| 2026-05-04 21:51 | 49.48710 | 11.19713 | 2430 ft | 158 kts | 281° |
| 2026-05-04 21:51 | 49.48873 | 11.18036 | 2219 ft | 158 kts | 281° |
| 2026-05-04 21:51 | 49.49034 | 11.16373 | 2001 ft | 157 kts | 281° |
| 2026-05-04 21:51 | 49.49187 | 11.14727 | 1800 ft | 153 kts | 279° |
| 2026-05-04 21:52 | 49.49341 | 11.13112 | 1582 ft | 151 kts | 279° |
| 2026-05-04 21:52 | 49.49502 | 11.11516 | 1367 ft | 151 kts | 279° |
| 2026-05-04 21:52 | 49.49660 | 11.09909 | 1147 ft | 151 kts | 279° |
| 2026-05-04 21:52 | 49.49814 | 11.08356 | 1034 ft | 137 kts | 279° |
| 2026-05-04 21:53 | 49.49935 | 11.07135 | 1023 ft | 94 kts | 278° |
| 2026-05-04 21:53 | 49.49984 | 11.06512 | 1023 ft | 18 kts | 243° |
| 2026-05-04 21:53 | 49.49870 | 11.06501 | 1020 ft | 18 kts | 160° |
| 2026-05-04 21:53 | 49.49793 | 11.06627 | 1019 ft | 17 kts | 97° |
| 2026-05-04 21:54 | 49.49776 | 11.06805 | 1018 ft | 17 kts | 98° |
| 2026-05-04 21:54 | 49.49760 | 11.06977 | 1020 ft | 16 kts | 98° |
| 2026-05-04 21:54 | 49.49744 | 11.07140 | 1021 ft | 15 kts | 98° |
| 2026-05-04 21:54 | 49.49691 | 11.07229 | 1022 ft | 12 kts | 179° |
| 2026-05-04 21:55 | 49.49634 | 11.07280 | 1024 ft | 11 kts | 99° |
| 2026-05-04 21:55 | 49.49622 | 11.07403 | 1024 ft | 14 kts | 97° |
| 2026-05-04 21:55 | 49.49603 | 11.07600 | 1025 ft | 21 kts | 100° |
| 2026-05-04 21:55 | 49.49581 | 11.07822 | 1025 ft | 21 kts | 98° |
| 2026-05-04 21:56 | 49.49572 | 11.07927 | 1025 ft | 1 kts | 88° |
| 2026-05-04 21:56 | 49.49592 | 11.07939 | 1042 ft | 7 kts | 6° |
| 2026-05-04 21:56 | 49.49632 | 11.08001 | 1028 ft | 5 kts | 102° |
| 2026-05-04 21:56 | 49.49622 | 11.08017 | 1026 ft | 2 kts | 143° |
| 2026-05-04 21:57 | 49.49609 | 11.08020 | 1028 ft | 1 kts | 185° |